createdAt,value
2023-04-24T00:00:46.277Z,95091.00
2023-04-24T00:01:53.484Z,95079.16
2023-04-24T00:02:58.494Z,95085.28
2023-04-24T00:04:05.006Z,95085.28
2023-04-24T00:05:07.727Z,95082.88
2023-04-24T00:06:12.247Z,95082.88
2023-04-24T00:07:14.312Z,95080.38
2023-04-24T00:08:18.788Z,95077.91
2023-04-24T00:09:20.642Z,95095.06
2023-04-24T00:10:25.291Z,95098.94
2023-04-24T00:11:27.173Z,95091.63
2023-04-24T00:12:31.580Z,95093.22
2023-04-24T00:13:33.430Z,95088.78
2023-04-24T00:14:38.433Z,95092.28
2023-04-24T00:15:40.325Z,95094.78
2023-04-24T00:16:44.809Z,95090.78
2023-04-24T00:17:49.357Z,95096.78
2023-04-24T00:18:53.904Z,95098.47
2023-04-24T00:19:59.634Z,95099.19
2023-04-24T00:21:04.142Z,95102.59
2023-04-24T00:22:06.497Z,95097.88
2023-04-24T00:23:10.921Z,95095.19
2023-04-24T00:24:12.790Z,95096.03
2023-04-24T00:25:17.331Z,95100.19
2023-04-24T00:26:19.254Z,95105.34
2023-04-24T00:27:23.774Z,95105.34
2023-04-24T00:28:25.681Z,95103.69
2023-04-24T00:29:30.432Z,95101.09
2023-04-24T00:30:32.329Z,95096.84
2023-04-24T00:31:37.197Z,95100.19
2023-04-24T00:32:39.072Z,95101.91
2023-04-24T00:33:46.160Z,95104.41
2023-04-24T00:34:48.002Z,95095.63
2023-04-24T00:35:52.432Z,95084.47
2023-04-24T00:36:54.270Z,95095.44
2023-04-24T00:37:58.761Z,95086.75
2023-04-24T00:39:00.786Z,95085.53
2023-04-24T00:40:05.398Z,95083.59
2023-04-24T00:41:07.443Z,95092.19
2023-04-24T00:42:12.105Z,95100.22
2023-04-24T00:43:14.074Z,95095.25
2023-04-24T00:44:18.530Z,95096.06
2023-04-24T00:45:20.787Z,95094.63
2023-04-24T00:46:25.933Z,95098.03
2023-04-24T00:47:28.130Z,95101.44
2023-04-24T00:48:32.834Z,95094.63
2023-04-24T00:49:37.360Z,95094.22
2023-04-24T00:50:42.061Z,95096.91
2023-04-24T00:51:46.750Z,95096.81
2023-04-24T00:52:51.951Z,95089.78
2023-04-24T00:53:53.917Z,95083.66
2023-04-24T00:54:58.585Z,95083.28
2023-04-24T00:56:01.379Z,95085.88
2023-04-24T00:57:06.365Z,95085.88
2023-04-24T00:58:08.286Z,95084.31
2023-04-24T00:59:13.092Z,95075.44
2023-04-24T01:00:16.022Z,95077.72
2023-04-24T01:01:22.205Z,95078.75
2023-04-24T01:02:24.354Z,95079.78
2023-04-24T01:03:31.291Z,95078.75
2023-04-24T01:04:36.077Z,95080.41
2023-04-24T01:05:40.866Z,95085.78
2023-04-24T01:06:46.614Z,95078.09
2023-04-24T01:07:50.227Z,95083.06
2023-04-24T01:08:54.697Z,95077.47
2023-04-24T01:09:56.626Z,95080.19
2023-04-24T01:11:01.302Z,95075.91
2023-04-24T01:12:03.222Z,95072.56
2023-04-24T01:13:07.922Z,95080.34
2023-04-24T01:14:10.201Z,95071.75
2023-04-24T01:15:14.669Z,95073.53
2023-04-24T01:16:16.546Z,95071.66
2023-04-24T01:17:21.822Z,95066.50
2023-04-24T01:18:23.736Z,95075.38
2023-04-24T01:19:28.524Z,95073.91
2023-04-24T01:20:31.436Z,95068.75
2023-04-24T01:21:39.869Z,95066.78
2023-04-24T01:22:44.302Z,95069.38
2023-04-24T01:23:49.140Z,95066.03
2023-04-24T01:24:51.069Z,95068.75
2023-04-24T01:25:55.865Z,95063.09
2023-04-24T01:26:58.082Z,95057.78
2023-04-24T01:28:02.765Z,95063.09
2023-04-24T01:29:04.751Z,95059.94
2023-04-24T01:30:10.295Z,95055.06
2023-04-24T01:31:12.444Z,95048.22
2023-04-24T01:32:17.010Z,95047.28
2023-04-24T01:33:19.001Z,95048.94
2023-04-24T01:34:23.456Z,95057.44
2023-04-24T01:35:26.160Z,95046.19
2023-04-24T01:36:31.371Z,95045.78
2023-04-24T01:37:33.690Z,95050.38
2023-04-24T01:38:40.727Z,95048.53
2023-04-24T01:39:42.836Z,95056.09
2023-04-24T01:40:47.512Z,95054.16
2023-04-24T01:41:50.853Z,95051.84
2023-04-24T01:42:55.363Z,95049.34
2023-04-24T01:43:58.172Z,95053.91
2023-04-24T01:45:03.021Z,95048.59
2023-04-24T01:46:04.933Z,95052.75
2023-04-24T01:47:09.670Z,95048.53
2023-04-24T01:48:12.372Z,95052.88
2023-04-24T01:49:16.831Z,95051.84
2023-04-24T01:50:18.817Z,95049.34
2023-04-24T01:51:23.935Z,95046.84
2023-04-24T01:52:25.996Z,95046.00
2023-04-24T01:53:30.447Z,95050.78
2023-04-24T01:54:35.102Z,95043.53
2023-04-24T01:55:39.788Z,95051.19
2023-04-24T01:56:43.014Z,95042.25
2023-04-24T01:57:47.444Z,95043.28
2023-04-24T01:58:50.150Z,95043.94
2023-04-24T01:59:54.685Z,95050.22
2023-04-24T02:00:57.987Z,95048.84
2023-04-24T02:02:12.814Z,95053.00
2023-04-24T02:03:14.907Z,95044.41
2023-04-24T02:04:19.551Z,95046.47
2023-04-24T02:05:21.685Z,95044.69
2023-04-24T02:06:38.655Z,95048.44
2023-04-24T02:07:43.140Z,95044.16
2023-04-24T02:08:44.984Z,95048.63
2023-04-24T02:09:52.072Z,95046.03
2023-04-24T02:10:53.942Z,95049.53
2023-04-24T02:11:58.551Z,95050.28
2023-04-24T02:13:00.919Z,95044.81
2023-04-24T02:14:05.317Z,95040.47
2023-04-24T02:15:08.050Z,95043.88
2023-04-24T02:16:12.525Z,95043.25
2023-04-24T02:17:16.703Z,95037.88
2023-04-24T02:18:21.127Z,95034.56
2023-04-24T02:19:22.974Z,95032.72
2023-04-24T02:20:27.683Z,95037.06
2023-04-24T02:21:29.595Z,95036.75
2023-04-24T02:22:34.044Z,95037.19
2023-04-24T02:23:35.995Z,95035.44
2023-04-24T02:24:40.728Z,95040.81
2023-04-24T02:25:45.193Z,95034.16
2023-04-24T02:26:49.738Z,95033.72
2023-04-24T02:27:51.532Z,95035.50
2023-04-24T02:28:56.053Z,95032.16
2023-04-24T02:29:57.947Z,95038.78
2023-04-24T02:31:02.852Z,95040.34
2023-04-24T02:32:04.816Z,95033.41
2023-04-24T02:33:09.403Z,95039.53
2023-04-24T02:34:11.595Z,95041.38
2023-04-24T02:35:16.537Z,95039.72
2023-04-24T02:36:18.516Z,95039.19
2023-04-24T02:37:23.045Z,95040.41
2023-04-24T02:38:24.902Z,95037.19
2023-04-24T02:39:29.316Z,95037.56
2023-04-24T02:40:31.392Z,95045.53
2023-04-24T02:41:38.616Z,95042.41
2023-04-24T02:42:40.501Z,95044.34
2023-04-24T02:43:45.122Z,95042.88
2023-04-24T02:44:46.992Z,95048.16
2023-04-24T02:45:51.648Z,95042.03
2023-04-24T02:46:53.548Z,95043.13
2023-04-24T02:47:58.194Z,95044.28
2023-04-24T02:49:00.406Z,95043.06
2023-04-24T02:50:05.860Z,95044.00
2023-04-24T02:51:07.951Z,95037.97
2023-04-24T02:52:12.401Z,95049.44
2023-04-24T02:53:14.839Z,95041.13
2023-04-24T02:54:19.309Z,95047.31
2023-04-24T02:55:21.284Z,95042.34
2023-04-24T02:56:25.753Z,95041.31
2023-04-24T02:57:32.811Z,95042.25
2023-04-24T02:58:34.960Z,95040.56
2023-04-24T02:59:39.398Z,95043.16
2023-04-24T03:00:41.314Z,95033.75
2023-04-24T03:01:45.864Z,95042.25
2023-04-24T03:02:47.964Z,95031.81
2023-04-24T03:03:52.891Z,95035.13
2023-04-24T03:04:54.966Z,95029.03
2023-04-24T03:05:59.728Z,95026.44
2023-04-24T03:07:02.397Z,95025.81
2023-04-24T03:08:07.445Z,95035.13
2023-04-24T03:09:09.474Z,95029.78
2023-04-24T03:10:14.094Z,95025.44
2023-04-24T03:11:15.927Z,95026.44
2023-04-24T03:12:20.687Z,95035.56
2023-04-24T03:13:28.160Z,95031.41
2023-04-24T03:14:32.442Z,95035.97
2023-04-24T03:15:36.871Z,95038.75
2023-04-24T03:16:39.712Z,95036.34
2023-04-24T03:17:44.279Z,95037.53
2023-04-24T03:18:47.505Z,95035.97
2023-04-24T03:19:51.933Z,95040.94
2023-04-24T03:20:53.859Z,95038.34
2023-04-24T03:21:58.326Z,95037.06
2023-04-24T03:23:00.166Z,95037.97
2023-04-24T03:24:04.892Z,95040.19
2023-04-24T03:25:07.314Z,95039.06
2023-04-24T03:26:11.898Z,95043.31
2023-04-24T03:27:13.793Z,95037.22
2023-04-24T03:28:18.222Z,95045.81
2023-04-24T03:29:22.780Z,95047.47
2023-04-24T03:30:27.529Z,95047.38
2023-04-24T03:31:29.422Z,95050.91
2023-04-24T03:32:34.051Z,95048.31
2023-04-24T03:33:37.119Z,95046.44
2023-04-24T03:34:42.591Z,95050.78
2023-04-24T03:35:44.611Z,95044.59
2023-04-24T03:36:49.476Z,95046.44
2023-04-24T03:37:51.365Z,95049.97
2023-04-24T03:38:55.872Z,95053.66
2023-04-24T03:39:57.745Z,95046.81
2023-04-24T03:41:03.177Z,95042.78
2023-04-24T03:42:05.496Z,95036.75
2023-04-24T03:43:09.970Z,95042.13
2023-04-24T03:44:11.978Z,95043.13
2023-04-24T03:45:19.055Z,95038.81
2023-04-24T03:46:21.089Z,95035.97
2023-04-24T03:47:26.239Z,95034.31
2023-04-24T03:48:28.179Z,95035.97
2023-04-24T03:49:32.663Z,95036.16
2023-04-24T03:50:34.554Z,95035.53
2023-04-24T03:51:39.022Z,95031.91
2023-04-24T03:52:41.251Z,95035.41
2023-04-24T03:53:45.695Z,95039.94
2023-04-24T03:54:47.567Z,95037.44
2023-04-24T03:55:52.088Z,95041.91
2023-04-24T03:56:54.007Z,95041.91
2023-04-24T03:57:58.768Z,95038.38
2023-04-24T03:59:00.704Z,95039.88
2023-04-24T04:00:07.569Z,95051.84
2023-04-24T04:01:13.658Z,95043.53
2023-04-24T04:02:18.256Z,95045.31
2023-04-24T04:03:20.509Z,95047.16
2023-04-24T04:04:25.366Z,95048.72
2023-04-24T04:05:27.420Z,95047.06
2023-04-24T04:06:31.978Z,95053.88
2023-04-24T04:07:33.819Z,95051.50
2023-04-24T04:08:38.260Z,95046.88
2023-04-24T04:09:40.251Z,95048.63
2023-04-24T04:10:44.753Z,95054.63
2023-04-24T04:11:46.987Z,95053.13
2023-04-24T04:12:51.464Z,95050.56
2023-04-24T04:13:53.352Z,95047.25
2023-04-24T04:14:57.849Z,95052.44
2023-04-24T04:15:59.762Z,95047.78
2023-04-24T04:17:06.866Z,95058.13
2023-04-24T04:18:10.017Z,95055.53
2023-04-24T04:19:14.516Z,95051.22
2023-04-24T04:20:16.525Z,95054.53
2023-04-24T04:21:21.020Z,95058.69
2023-04-24T04:22:22.897Z,95063.13
2023-04-24T04:23:27.616Z,95052.88
2023-04-24T04:24:29.816Z,95058.69
2023-04-24T04:25:34.422Z,95051.66
2023-04-24T04:26:36.622Z,95049.28
2023-04-24T04:27:42.757Z,95051.31
2023-04-24T04:28:45.724Z,95055.84
2023-04-24T04:29:50.187Z,95049.28
2023-04-24T04:30:54.898Z,95056.28
2023-04-24T04:32:05.967Z,95053.91
2023-04-24T04:33:11.917Z,95061.09
2023-04-24T04:34:16.591Z,95053.72
2023-04-24T04:35:18.580Z,95054.09
2023-04-24T04:36:23.475Z,95056.56
2023-04-24T04:37:26.526Z,95057.56
2023-04-24T04:38:31.117Z,95061.72
2023-04-24T04:39:33.024Z,95060.91
2023-04-24T04:40:37.906Z,95068.66
2023-04-24T04:41:42.015Z,95067.75
2023-04-24T04:42:47.251Z,95071.97
2023-04-24T04:43:49.343Z,95067.63
2023-04-24T04:44:54.136Z,95070.16
2023-04-24T04:45:57.221Z,95069.97
2023-04-24T04:47:01.802Z,95069.59
2023-04-24T04:48:04.680Z,95078.09
2023-04-24T04:49:12.125Z,95071.06
2023-04-24T04:50:13.973Z,95063.22
2023-04-24T04:51:18.387Z,95071.63
2023-04-24T04:52:20.299Z,95072.16
2023-04-24T04:53:24.729Z,95067.00
2023-04-24T04:54:26.683Z,95066.72
2023-04-24T04:55:31.332Z,95071.97
2023-04-24T04:56:33.196Z,95071.97
2023-04-24T04:57:37.665Z,95070.88
2023-04-24T04:58:39.493Z,95074.19
2023-04-24T04:59:44.359Z,95079.34
2023-04-24T05:00:46.462Z,95081.75
2023-04-24T05:01:50.966Z,95087.78
2023-04-24T05:02:53.194Z,95095.44
2023-04-24T05:03:58.349Z,95091.81
2023-04-24T05:05:03.485Z,95090.72
2023-04-24T05:06:08.486Z,95098.00
2023-04-24T05:07:10.441Z,95094.34
2023-04-24T05:09:19.684Z,95098.13
2023-04-24T05:10:24.140Z,95121.53
2023-04-24T05:11:26.153Z,95115.84
2023-04-24T05:12:30.767Z,95126.47
2023-04-24T05:13:40.444Z,95124.81
2023-04-24T05:14:45.618Z,95131.63
2023-04-24T05:15:47.762Z,95129.13
2023-04-24T05:16:52.691Z,95131.63
2023-04-24T05:17:56.830Z,95141.22
2023-04-24T05:19:02.388Z,95133.66
2023-04-24T05:20:08.179Z,95142.34
2023-04-24T05:21:12.660Z,95142.53
2023-04-24T05:22:14.864Z,95143.72
2023-04-24T05:23:19.381Z,95140.31
2023-04-24T05:24:21.358Z,95141.78
2023-04-24T05:25:26.056Z,95145.19
2023-04-24T05:26:28.340Z,95152.84
2023-04-24T05:27:32.909Z,95149.16
2023-04-24T05:28:35.003Z,95149.72
2023-04-24T05:29:39.459Z,95161.91
2023-04-24T05:30:41.908Z,95165.16
2023-04-24T05:31:46.495Z,95166.81
2023-04-24T05:32:48.492Z,95168.47
2023-04-24T05:33:53.014Z,95169.38
2023-04-24T05:34:54.917Z,95165.16
2023-04-24T05:36:01.958Z,95169.13
2023-04-24T05:37:04.540Z,95172.53
2023-04-24T05:38:08.980Z,95169.47
2023-04-24T05:39:10.906Z,95162.38
2023-04-24T05:40:15.388Z,95160.81
2023-04-24T05:41:17.216Z,95164.97
2023-04-24T05:42:31.092Z,95160.63
2023-04-24T05:43:33.068Z,95162.47
2023-04-24T05:44:37.517Z,95161.72
2023-04-24T05:45:39.421Z,95162.47
2023-04-24T05:46:43.896Z,95164.47
2023-04-24T05:47:46.470Z,95171.22
2023-04-24T05:48:51.106Z,95166.81
2023-04-24T05:49:55.820Z,95171.78
2023-04-24T05:51:00.311Z,95175.13
2023-04-24T05:52:05.414Z,95179.47
2023-04-24T05:53:11.832Z,95185.34
2023-04-24T05:54:13.727Z,95187.75
2023-04-24T05:55:18.567Z,95185.91
2023-04-24T05:56:20.569Z,95195.44
2023-04-24T05:57:25.043Z,95185.09
2023-04-24T05:58:27.019Z,95194.63
2023-04-24T05:59:31.840Z,95182.97
2023-04-24T06:00:34.315Z,95186.03
2023-04-24T06:01:39.296Z,95188.06
2023-04-24T06:02:41.522Z,95190.63
2023-04-24T06:03:46.531Z,95194.78
2023-04-24T06:04:51.256Z,95212.16
2023-04-24T06:05:53.152Z,95194.31
2023-04-24T06:07:00.307Z,95192.41
2023-04-24T06:08:02.179Z,95195.63
2023-04-24T06:09:07.200Z,95205.97
2023-04-24T06:10:09.676Z,95190.09
2023-04-24T06:11:14.104Z,95197.75
2023-04-24T06:12:15.998Z,95197.59
2023-04-24T06:13:20.882Z,95202.38
2023-04-24T06:14:22.862Z,95212.34
2023-04-24T06:15:27.917Z,95203.84
2023-04-24T06:16:33.686Z,95212.34
2023-04-24T06:17:35.690Z,95217.97
2023-04-24T06:18:40.744Z,95220.94
2023-04-24T06:19:42.881Z,95230.09
2023-04-24T06:20:47.554Z,95223.25
2023-04-24T06:21:49.436Z,95233.78
2023-04-24T06:22:56.560Z,95232.09
2023-04-24T06:23:59.253Z,95229.06
2023-04-24T06:25:03.728Z,95232.31
2023-04-24T06:26:05.749Z,95230.19
2023-04-24T06:27:10.383Z,95240.63
2023-04-24T06:28:12.191Z,95228.19
2023-04-24T06:29:16.622Z,95234.88
2023-04-24T06:30:18.689Z,95231.41
2023-04-24T06:31:23.390Z,95232.16
2023-04-24T06:32:29.446Z,95227.88
2023-04-24T06:33:34.063Z,95222.25
2023-04-24T06:34:36.730Z,95233.72
2023-04-24T06:35:41.751Z,95236.69
2023-04-24T06:36:43.613Z,95228.81
2023-04-24T06:37:48.215Z,95223.63
2023-04-24T06:38:52.668Z,95229.94
2023-04-24T06:39:57.222Z,95238.22
2023-04-24T06:40:59.222Z,95225.47
2023-04-24T06:42:03.678Z,95223.19
2023-04-24T06:43:05.517Z,95229.00
2023-04-24T06:44:09.916Z,95230.19
2023-04-24T06:45:12.422Z,95226.47
2023-04-24T06:46:17.401Z,95220.47
2023-04-24T06:47:19.842Z,95233.34
2023-04-24T06:48:24.567Z,95224.66
2023-04-24T06:49:26.561Z,95225.66
2023-04-24T06:50:31.310Z,95223.06
2023-04-24T06:51:34.234Z,95230.47
2023-04-24T06:52:45.424Z,95226.97
2023-04-24T06:53:51.447Z,95224.19
2023-04-24T06:55:00.963Z,95218.72
2023-04-24T06:56:05.875Z,95218.72
2023-04-24T06:57:11.527Z,95211.97
2023-04-24T06:58:16.283Z,95212.53
2023-04-24T06:59:18.128Z,95218.66
2023-04-24T07:00:23.231Z,95215.59
2023-04-24T07:01:27.718Z,95213.09
2023-04-24T07:02:29.741Z,95214.56
2023-04-24T07:03:34.773Z,95211.78
2023-04-24T07:04:36.887Z,95218.84
2023-04-24T07:05:41.616Z,95220.03
2023-04-24T07:06:43.690Z,95222.69
2023-04-24T07:07:48.132Z,95216.97
2023-04-24T07:08:50.374Z,95223.16
2023-04-24T07:09:55.373Z,95219.38
2023-04-24T07:11:02.538Z,95207.56
2023-04-24T07:12:04.664Z,95214.66
2023-04-24T07:13:09.766Z,95218.84
2023-04-24T07:14:11.601Z,95213.19
2023-04-24T07:15:16.059Z,95218.72
2023-04-24T07:16:20.531Z,95212.19
2023-04-24T07:17:22.504Z,95211.88
2023-04-24T07:18:27.003Z,95225.56
2023-04-24T07:19:28.926Z,95219.38
2023-04-24T07:20:34.708Z,95213.25
2023-04-24T07:21:36.651Z,95210.97
2023-04-24T07:22:41.747Z,95209.72
2023-04-24T07:23:46.373Z,95215.75
2023-04-24T07:24:50.925Z,95215.78
2023-04-24T07:25:55.921Z,95210.22
2023-04-24T07:27:00.640Z,95215.53
2023-04-24T07:28:05.841Z,95213.00
2023-04-24T07:29:10.397Z,95217.72
2023-04-24T07:30:12.915Z,95224.41
2023-04-24T07:31:17.493Z,95216.94
2023-04-24T07:32:19.337Z,95223.94
2023-04-24T07:33:23.992Z,95225.09
2023-04-24T07:34:28.451Z,95215.78
2023-04-24T07:35:30.359Z,95224.41
2023-04-24T07:36:34.869Z,95219.72
2023-04-24T07:37:36.762Z,95209.94
2023-04-24T07:38:41.678Z,95220.00
2023-04-24T07:39:46.510Z,95216.50
2023-04-24T07:40:51.188Z,95209.44
2023-04-24T07:41:58.003Z,95209.56
2023-04-24T07:43:02.490Z,95216.75
2023-04-24T07:44:07.042Z,95210.06
2023-04-24T07:45:11.686Z,95213.75
2023-04-24T07:46:13.586Z,95206.44
2023-04-24T07:47:18.667Z,95215.06
2023-04-24T07:48:23.471Z,95209.56
2023-04-24T07:49:25.414Z,95208.13
2023-04-24T07:50:30.066Z,95211.03
2023-04-24T07:51:32.121Z,95210.09
2023-04-24T07:52:36.881Z,95208.22
2023-04-24T07:53:42.558Z,95221.09
2023-04-24T07:54:47.033Z,95213.63
2023-04-24T07:55:48.939Z,95217.56
2023-04-24T07:56:53.702Z,95212.56
2023-04-24T07:57:58.162Z,95215.78
2023-04-24T07:59:02.660Z,95214.22
2023-04-24T08:00:07.629Z,95218.16
2023-04-24T08:01:09.649Z,95227.53
2023-04-24T08:02:14.095Z,95224.72
2023-04-24T08:03:16.212Z,95234.78
2023-04-24T08:04:29.341Z,95225.44
2023-04-24T08:05:34.144Z,95223.53
2023-04-24T08:07:58.964Z,95233.44
2023-04-24T08:09:00.914Z,95246.59
2023-04-24T08:10:05.587Z,95247.91
2023-04-24T08:11:10.005Z,95253.47
2023-04-24T08:12:11.879Z,95247.91
2023-04-24T08:13:16.442Z,95254.34
2023-04-24T08:14:23.469Z,95257.84
2023-04-24T08:15:26.078Z,95261.91
2023-04-24T08:16:30.703Z,95254.59
2023-04-24T08:17:32.692Z,95255.41
2023-04-24T08:18:37.171Z,95258.53
2023-04-24T08:19:39.094Z,95268.09
2023-04-24T08:20:43.552Z,95265.19
2023-04-24T08:21:45.441Z,95261.09
2023-04-24T08:22:50.513Z,95260.91
2023-04-24T08:23:52.385Z,95262.13
2023-04-24T08:24:57.262Z,95261.09
2023-04-24T08:26:01.818Z,95266.09
2023-04-24T08:27:03.989Z,95268.41
2023-04-24T08:28:09.565Z,95266.50
2023-04-24T08:29:11.457Z,95265.28
2023-04-24T08:30:18.892Z,95264.69
2023-04-24T08:31:24.029Z,95268.34
2023-04-24T08:32:30.007Z,95269.72
2023-04-24T08:33:36.005Z,95262.16
2023-04-24T08:34:37.995Z,95273.28
2023-04-24T08:35:42.754Z,95268.53
2023-04-24T08:36:47.846Z,95275.94
2023-04-24T08:37:49.999Z,95279.53
2023-04-24T08:38:54.403Z,95272.72
2023-04-24T08:39:56.422Z,95290.75
2023-04-24T08:41:02.591Z,95274.78
2023-04-24T08:42:09.146Z,95280.38
2023-04-24T08:43:14.639Z,95279.97
2023-04-24T08:44:17.375Z,95293.47
2023-04-24T08:45:24.913Z,95286.03
2023-04-24T08:46:27.273Z,95272.94
2023-04-24T08:47:32.884Z,95278.88
2023-04-24T08:48:34.830Z,95274.78
2023-04-24T08:49:40.325Z,95283.31
2023-04-24T08:50:44.088Z,95276.94
2023-04-24T08:51:49.216Z,95270.81
2023-04-24T08:52:54.493Z,95273.13
2023-04-24T08:53:59.026Z,95265.78
2023-04-24T08:55:01.324Z,95288.75
2023-04-24T08:56:06.743Z,95262.63
2023-04-24T08:57:09.193Z,95267.34
2023-04-24T08:58:14.129Z,95257.81
2023-04-24T08:59:18.808Z,95262.81
2023-04-24T09:00:23.777Z,95275.59
2023-04-24T09:01:30.062Z,95267.19
2023-04-24T09:02:33.438Z,95272.91
2023-04-24T09:03:38.785Z,95265.31
2023-04-24T09:04:42.226Z,95257.09
2023-04-24T09:05:48.650Z,95274.63
2023-04-24T09:06:53.362Z,95286.47
2023-04-24T09:07:59.412Z,95271.94
2023-04-24T09:09:02.097Z,95279.66
2023-04-24T09:10:06.905Z,95274.06
2023-04-24T09:11:11.858Z,95283.81
2023-04-24T09:12:13.961Z,95280.78
2023-04-24T09:13:18.524Z,95273.88
2023-04-24T09:14:24.323Z,95262.81
2023-04-24T09:15:31.792Z,95254.16
2023-04-24T09:16:36.883Z,95253.03
2023-04-24T09:17:39.317Z,95251.00
2023-04-24T09:20:21.347Z,95255.47
2023-04-24T09:21:27.804Z,95254.91
2023-04-24T09:22:31.059Z,95252.75
2023-04-24T09:23:36.206Z,95257.59
2023-04-24T09:24:38.145Z,95267.47
2023-04-24T09:25:42.922Z,95263.88
2023-04-24T09:26:45.408Z,95267.63
2023-04-24T09:27:49.857Z,95269.94
2023-04-24T09:28:51.800Z,95280.78
2023-04-24T09:29:59.410Z,95296.06
2023-04-24T09:31:14.206Z,95297.63
2023-04-24T09:32:26.992Z,95285.97
2023-04-24T09:33:28.980Z,95281.00
2023-04-24T09:34:33.429Z,95288.78
2023-04-24T09:35:35.433Z,95292.75
2023-04-24T09:36:41.973Z,95296.16
2023-04-24T09:37:46.353Z,95284.22
2023-04-24T09:38:50.853Z,95294.41
2023-04-24T09:40:11.328Z,95288.56
2023-04-24T09:41:17.905Z,95277.19
2023-04-24T09:42:20.618Z,95286.31
2023-04-24T09:43:25.167Z,95285.69
2023-04-24T09:44:30.670Z,95295.44
2023-04-24T09:45:36.964Z,95306.81
2023-04-24T09:46:45.184Z,95305.44
2023-04-24T09:47:50.114Z,95306.50
2023-04-24T09:48:52.036Z,95304.75
2023-04-24T09:50:02.062Z,95310.38
2023-04-24T09:51:11.750Z,95297.16
2023-04-24T09:52:16.363Z,95293.69
2023-04-24T09:53:24.948Z,95295.97
2023-04-24T09:54:30.862Z,95299.63
2023-04-24T09:55:33.249Z,95297.25
2023-04-24T09:56:38.067Z,95289.63
2023-04-24T09:57:48.085Z,95305.22
2023-04-24T09:58:52.585Z,95298.97
2023-04-24T09:59:54.657Z,95294.13
2023-04-24T10:00:59.400Z,95321.41
2023-04-24T10:02:04.370Z,95321.19
2023-04-24T10:03:30.921Z,95314.44
2023-04-24T10:04:35.469Z,95321.19
2023-04-24T10:05:42.471Z,95323.84
2023-04-24T10:06:44.464Z,95336.91
2023-04-24T10:07:50.176Z,95336.28
2023-04-24T10:08:55.526Z,95320.66
2023-04-24T10:09:57.581Z,95355.66
2023-04-24T10:11:02.462Z,95349.66
2023-04-24T10:12:04.506Z,95353.28
2023-04-24T10:13:08.973Z,95355.47
2023-04-24T10:14:12.253Z,95349.31
2023-04-24T10:15:18.849Z,95365.06
2023-04-24T10:16:23.745Z,95365.63
2023-04-24T10:17:32.062Z,95375.56
2023-04-24T10:18:34.930Z,95360.84
2023-04-24T10:19:39.628Z,95373.84
2023-04-24T10:20:41.736Z,95358.78
2023-04-24T10:21:47.724Z,95375.75
2023-04-24T10:22:51.237Z,95341.72
2023-04-24T10:23:56.540Z,95374.81
2023-04-24T10:24:58.515Z,95344.25
2023-04-24T10:26:04.137Z,95340.50
2023-04-24T10:27:07.214Z,95357.97
2023-04-24T10:28:12.842Z,95355.31
2023-04-24T10:29:23.660Z,95346.28
2023-04-24T10:30:28.276Z,95359.31
2023-04-24T10:33:06.070Z,95355.31
2023-04-24T10:34:11.003Z,95356.09
2023-04-24T10:35:13.973Z,95345.97
2023-04-24T10:36:19.698Z,95336.59
2023-04-24T10:37:22.020Z,95345.00
2023-04-24T10:38:28.114Z,95333.59
2023-04-24T10:39:31.972Z,95341.88
2023-04-24T10:40:37.600Z,95343.41
2023-04-24T10:41:39.730Z,95354.00
2023-04-24T10:42:45.035Z,95332.78
2023-04-24T10:43:52.061Z,95345.13
2023-04-24T10:44:55.052Z,95353.69
2023-04-24T10:46:06.419Z,95344.44
2023-04-24T10:47:13.918Z,95345.25
2023-04-24T10:48:21.189Z,95341.53
2023-04-24T10:49:32.051Z,95337.78
2023-04-24T10:50:43.850Z,95345.91
2023-04-24T10:51:49.273Z,95339.53
2023-04-24T10:52:52.461Z,95342.94
2023-04-24T10:53:57.027Z,95345.13
2023-04-24T10:55:05.477Z,95326.84
2023-04-24T10:56:11.301Z,95338.16
2023-04-24T10:57:32.625Z,95334.19
2023-04-24T10:58:39.506Z,95335.16
2023-04-24T10:59:44.211Z,95340.66
2023-04-24T11:00:58.985Z,95320.59
2023-04-24T11:02:03.665Z,95354.38
2023-04-24T11:03:06.173Z,95329.06
2023-04-24T11:04:14.305Z,95326.69
2023-04-24T11:05:16.952Z,95301.13
2023-04-24T11:06:32.754Z,95309.88
2023-04-24T11:08:18.544Z,95319.63
2023-04-24T11:09:25.918Z,95332.63
2023-04-24T11:10:27.863Z,95331.66
2023-04-24T11:11:32.584Z,95307.25
2023-04-24T11:12:36.237Z,95316.03
2023-04-24T11:13:55.804Z,95326.84
2023-04-24T11:15:04.615Z,95324.38
2023-04-24T11:16:17.081Z,95330.75
2023-04-24T11:17:31.154Z,95340.59
2023-04-24T11:18:38.389Z,95339.38
2023-04-24T11:19:43.322Z,95341.34
2023-04-24T11:22:05.047Z,95342.16
2023-04-24T11:23:07.880Z,95354.22
2023-04-24T11:24:34.652Z,95362.75
2023-04-24T11:25:37.134Z,95366.16
2023-04-24T11:26:43.565Z,95372.03
2023-04-24T11:27:49.855Z,95357.75
2023-04-24T11:28:52.030Z,95356.34
2023-04-24T11:30:04.558Z,95371.16
2023-04-24T11:31:21.560Z,95377.75
2023-04-24T11:32:30.108Z,95364.50
2023-04-24T11:33:32.694Z,95380.41
2023-04-24T11:34:37.103Z,95365.44
2023-04-24T11:35:43.838Z,95371.59
2023-04-24T11:36:46.531Z,95383.78
2023-04-24T11:38:57.941Z,95368.03
2023-04-24T11:40:05.290Z,95368.38
2023-04-24T11:41:10.232Z,95354.06
2023-04-24T11:43:52.870Z,95360.69
2023-04-24T11:44:58.356Z,95358.09
2023-04-24T11:46:04.020Z,95359.47
2023-04-24T11:47:10.001Z,95366.34
2023-04-24T11:48:14.442Z,95342.19
2023-04-24T11:49:16.349Z,95356.88
2023-04-24T11:50:21.570Z,95363.97
2023-04-24T11:51:23.626Z,95348.41
2023-04-24T11:52:28.140Z,95349.34
2023-04-24T11:53:31.921Z,95334.13
2023-04-24T11:54:36.421Z,95354.63
2023-04-24T11:55:43.522Z,95359.31
2023-04-24T11:56:46.152Z,95366.91
2023-04-24T11:57:51.646Z,95355.72
2023-04-24T11:58:54.566Z,95365.63
2023-04-24T11:59:59.132Z,95363.75
2023-04-24T12:01:02.398Z,95354.84
2023-04-24T12:02:07.410Z,95363.16
2023-04-24T12:03:13.074Z,95378.25
2023-04-24T12:04:18.374Z,95369.78
2023-04-24T12:05:23.677Z,95373.28
2023-04-24T12:06:28.470Z,95376.56
2023-04-24T12:07:32.926Z,95375.84
2023-04-24T12:08:36.560Z,95377.13
2023-04-24T12:09:47.632Z,95387.28
2023-04-24T12:10:55.290Z,95379.22
2023-04-24T12:12:00.835Z,95398.63
2023-04-24T12:13:05.539Z,95401.75
2023-04-24T12:14:18.874Z,95377.72
2023-04-24T12:15:24.260Z,95387.91
2023-04-24T12:16:32.173Z,95386.81
2023-04-24T12:17:34.591Z,95397.81
2023-04-24T12:18:39.080Z,95386.44
2023-04-24T12:19:46.510Z,95346.97
2023-04-24T12:20:50.934Z,95382.00
2023-04-24T12:22:01.838Z,95389.84
2023-04-24T12:23:06.231Z,95373.38
2023-04-24T12:24:08.196Z,95373.13
2023-04-24T12:25:14.335Z,95364.72
2023-04-24T12:26:25.755Z,95382.88
2023-04-24T12:27:28.172Z,95372.59
2023-04-24T12:28:38.814Z,95372.78
2023-04-24T12:29:54.935Z,95374.59
2023-04-24T12:30:59.462Z,95387.00
2023-04-24T12:32:02.111Z,95383.66
2023-04-24T12:33:07.174Z,95373.19
2023-04-24T12:34:18.450Z,95374.84
2023-04-24T12:35:23.752Z,95404.75
2023-04-24T12:36:29.030Z,95400.75
2023-04-24T12:37:37.654Z,95414.03
2023-04-24T12:38:45.678Z,95412.69
2023-04-24T12:40:04.976Z,95412.19
2023-04-24T12:41:10.587Z,95418.84
2023-04-24T12:42:18.038Z,95435.38
2023-04-24T12:43:23.140Z,95442.00
2023-04-24T12:44:32.276Z,95431.00
2023-04-24T12:45:36.754Z,95445.44
2023-04-24T12:46:38.626Z,95431.00
2023-04-24T12:47:43.740Z,95445.34
2023-04-24T12:48:45.901Z,95439.22